F/V Barracuda II — FMIF — position and weather

sailwx.info

Track history (hours):
 
Tides and Currents Weather Stations Pressure Air Temp Water Temp Dewpoint Dewpoint Depression Visibility Wind Speed Wind Dir Waves Ship Positions

F/V Barracuda II

Last reported at 2017-Nov-03 12:08 UTC. Time now 2017-Nov-17 17:51 UTC.
Position N 43°23' E 004°26'.
Warning: this ship's position is 14 days out of date.

Length 18 m.

Type: Fishing. MMSI: 228236800.

Date/timePositionNaut miles runAvg speedWind from/ knotsBaromVisibWave heightAir tempDewpointWater temp
2017-Nov-03 12:08N 43°23' E 004°26'1 4.0
2017-Nov-03 11:55N 43°23' E 004°27'2 4.0
2017-Nov-03 11:30N 43°23' E 004°29'2 3.2
2017-Nov-03 11:00N 43°24' E 004°27'1 1.2
2017-Nov-03 10:30N 43°23' E 004°27'1 1.3
2017-Nov-03 10:00N 43°24' E 004°28'2 3.1
2017-Nov-03 09:31N 43°23' E 004°29'2 3.8
2017-Nov-03 09:00N 43°21' E 004°30'2 3.9
2017-Nov-03 08:31N 43°20' E 004°32'2 3.9
2017-Nov-03 08:01N 43°19' E 004°34'15 0.8
2017-Nov-02 12:44N 43°23' E 004°15'1 4.0
2017-Nov-02 12:29N 43°22' E 004°16'2 3.9
2017-Nov-02 12:00N 43°21' E 004°18'2 3.9
2017-Nov-02 11:30N 43°20' E 004°20'1 2.8
2017-Nov-02 11:00N 43°19' E 004°22'1 1.9
2017-Nov-02 10:30N 43°19' E 004°23'2 3.9
2017-Nov-02 10:00N 43°18' E 004°25'2 4.0
2017-Nov-02 09:25N 43°18' E 004°29'2 3.9
2017-Nov-02 09:00N 43°18' E 004°31'2 0.7
2017-Nov-02 05:44N 43°20' E 004°30'1 4.0
2017-Nov-02 05:30N 43°21' E 004°29'2 3.9
2017-Nov-02 04:58N 43°22' E 004°27'2 3.9
2017-Nov-02 04:30N 43°22' E 004°24'4 3.8
2017-Nov-02 03:22N 43°24' E 004°19'5 0.1
2017-Oct-31 14:00N 43°25' E 004°13'7 3.8
2017-Oct-31 12:10N 43°23' E 004°22'1 3.9
2017-Oct-31 11:59N 43°23' E 004°23'2 3.9
2017-Oct-31 11:30N 43°23' E 004°25'2 3.9
2017-Oct-31 11:00N 43°22' E 004°28'0 0.3
2017-Oct-31 10:30N 43°22' E 004°28'1 2.6
2017-Oct-31 10:00N 43°23' E 004°29'2 3.8
2017-Oct-31 09:30N 43°21' E 004°30'2 3.9
2017-Oct-31 09:00N 43°20' E 004°32'5 4.0
2017-Oct-31 07:40N 43°18' E 004°39'1 3.9
2017-Oct-31 07:30N 43°18' E 004°40'10 0.5
2017-Oct-30 10:24N 43°23' E 004°27'1 2.3
2017-Oct-30 10:00N 43°24' E 004°27'  
2017-Oct-26 06:12N 43°19' E 004°28'20 1.2
2017-Oct-25 14:10N 43°32' E 004°08'0 0.6
2017-Oct-25 14:00N 43°32' E 004°07'5 7.9
2017-Oct-25 13:25N 43°27' E 004°05'8 3.4
2017-Oct-25 10:59N 43°22' E 004°14'2 3.8
2017-Oct-25 10:20N 43°21' E 004°17'1 3.9
2017-Oct-25 10:00N 43°20' E 004°18'2 2.7
2017-Oct-25 09:26N 43°19' E 004°20'2 3.7
2017-Oct-25 09:00N 43°19' E 004°22'2 3.7
2017-Oct-25 08:27N 43°18' E 004°25'2 3.8
2017-Oct-25 08:01N 43°18' E 004°27'2 3.8
2017-Oct-25 07:31N 43°18' E 004°30'2 3.7
2017-Oct-25 07:01N 43°19' E 004°32'3 3.8
2017-Oct-25 06:07N 43°18' E 004°37'  
Track history (hours):
 
Tides and Currents Weather Stations Pressure Air Temp Water Temp Dewpoint Dewpoint Depression Visibility Wind Speed Wind Dir Waves Ship Positions

F/V Barracuda II

Last reported at 2017-Nov-03 12:08 UTC. Time now 2017-Nov-17 17:51 UTC.
Position N 43°23' E 004°26'.
Warning: this ship's position is 14 days out of date.

Length 18 m.

Type: Fishing. MMSI: 228236800.

Date/timePositionNaut miles runAvg speedWind from/ knotsBaromVisibWave heightAir tempDewpointWater temp
2017-Nov-03 12:08N 43°23' E 004°26'1 4.0
2017-Nov-03 11:55N 43°23' E 004°27'2 4.0
2017-Nov-03 11:30N 43°23' E 004°29'2 3.2
2017-Nov-03 11:00N 43°24' E 004°27'1 1.2
2017-Nov-03 10:30N 43°23' E 004°27'1 1.3
2017-Nov-03 10:00N 43°24' E 004°28'2 3.1
2017-Nov-03 09:31N 43°23' E 004°29'2 3.8
2017-Nov-03 09:00N 43°21' E 004°30'2 3.9
2017-Nov-03 08:31N 43°20' E 004°32'2 3.9
2017-Nov-03 08:01N 43°19' E 004°34'15 0.8
2017-Nov-02 12:44N 43°23' E 004°15'1 4.0
2017-Nov-02 12:29N 43°22' E 004°16'2 3.9
2017-Nov-02 12:00N 43°21' E 004°18'2 3.9
2017-Nov-02 11:30N 43°20' E 004°20'1 2.8
2017-Nov-02 11:00N 43°19' E 004°22'1 1.9
2017-Nov-02 10:30N 43°19' E 004°23'2 3.9
2017-Nov-02 10:00N 43°18' E 004°25'2 4.0
2017-Nov-02 09:25N 43°18' E 004°29'2 3.9
2017-Nov-02 09:00N 43°18' E 004°31'2 0.7
2017-Nov-02 05:44N 43°20' E 004°30'1 4.0
2017-Nov-02 05:30N 43°21' E 004°29'2 3.9
2017-Nov-02 04:58N 43°22' E 004°27'2 3.9
2017-Nov-02 04:30N 43°22' E 004°24'4 3.8
2017-Nov-02 03:22N 43°24' E 004°19'5 0.1
2017-Oct-31 14:00N 43°25' E 004°13'7 3.8
2017-Oct-31 12:10N 43°23' E 004°22'1 3.9
2017-Oct-31 11:59N 43°23' E 004°23'2 3.9
2017-Oct-31 11:30N 43°23' E 004°25'2 3.9
2017-Oct-31 11:00N 43°22' E 004°28'0 0.3
2017-Oct-31 10:30N 43°22' E 004°28'1 2.6
2017-Oct-31 10:00N 43°23' E 004°29'2 3.8
2017-Oct-31 09:30N 43°21' E 004°30'2 3.9
2017-Oct-31 09:00N 43°20' E 004°32'5 4.0
2017-Oct-31 07:40N 43°18' E 004°39'1 3.9
2017-Oct-31 07:30N 43°18' E 004°40'10 0.5
2017-Oct-30 10:24N 43°23' E 004°27'1 2.3
2017-Oct-30 10:00N 43°24' E 004°27'  
2017-Oct-26 06:12N 43°19' E 004°28'20 1.2
2017-Oct-25 14:10N 43°32' E 004°08'0 0.6
2017-Oct-25 14:00N 43°32' E 004°07'5 7.9
2017-Oct-25 13:25N 43°27' E 004°05'8 3.4
2017-Oct-25 10:59N 43°22' E 004°14'2 3.8
2017-Oct-25 10:20N 43°21' E 004°17'1 3.9
2017-Oct-25 10:00N 43°20' E 004°18'2 2.7
2017-Oct-25 09:26N 43°19' E 004°20'2 3.7
2017-Oct-25 09:00N 43°19' E 004°22'2 3.7
2017-Oct-25 08:27N 43°18' E 004°25'2 3.8
2017-Oct-25 08:01N 43°18' E 004°27'2 3.8
2017-Oct-25 07:31N 43°18' E 004°30'2 3.7
2017-Oct-25 07:01N 43°19' E 004°32'3 3.8
2017-Oct-25 06:07N 43°18' E 004°37'  

Dump ship's entire track history